Time;durP1;ratioP1;P1;durP2;ratioP2;P2;SDS_P1;SDS_P2;PMS_P1;PMS_P2;Temp;Humidity;BMP_temperature;BMP_pressure;BME280_temperature;BME280_humidity;BME280_pressure;Samples;Min_cycle;Max_cycle;Signal;HPM_P1;HPM_P2
2023/07/22 00:01:46;;;;;;;2.37;2.17;;;17.40;86.30;;;;;;963374;146;27356;-73
2023/07/22 00:04:12;;;;;;;2.58;2.40;;;17.30;86.80;;;;;;963249;146;27293;-73
2023/07/22 00:06:39;;;;;;;2.50;2.30;;;17.20;87.60;;;;;;963448;146;27303;-73
2023/07/22 00:09:06;;;;;;;2.30;2.10;;;17.20;88.80;;;;;;954723;146;27356;-73
2023/07/22 00:11:32;;;;;;;2.20;2.10;;;17.20;90.30;;;;;;942524;149;27453;-73
2023/07/22 00:13:59;;;;;;;2.90;2.10;;;17.10;90.30;;;;;;941429;149;27349;-73
2023/07/22 00:16:25;;;;;;;3.85;2.20;;;17.10;90.70;;;;;;942320;149;27451;-73
2023/07/22 00:18:53;;;;;;;2.30;2.12;;;17.10;91.00;;;;;;941651;149;27337;-73
2023/07/22 00:21:19;;;;;;;7.67;3.13;;;17.10;91.30;;;;;;942340;149;27456;-73
2023/07/22 00:23:46;;;;;;;3.40;2.30;;;17.20;91.40;;;;;;942576;149;27458;-73
2023/07/22 00:26:12;;;;;;;3.30;2.20;;;17.20;91.60;;;;;;948411;147;27324;-73
2023/07/22 00:28:39;;;;;;;3.12;2.70;;;17.20;91.70;;;;;;949313;146;27333;-73
2023/07/22 00:31:05;;;;;;;2.30;2.10;;;17.10;91.90;;;;;;950996;147;27424;-73
2023/07/22 00:33:32;;;;;;;2.30;2.10;;;17.20;92.10;;;;;;949176;146;27513;-73
2023/07/22 00:35:58;;;;;;;2.00;1.90;;;17.20;92.20;;;;;;932916;150;27343;-73
2023/07/22 00:38:25;;;;;;;2.52;2.33;;;17.20;92.30;;;;;;950538;147;27385;-73
2023/07/22 00:40:51;;;;;;;2.52;2.33;;;17.20;92.30;;;;;;950041;147;27344;-73
2023/07/22 00:43:18;;;;;;;2.40;2.20;;;17.20;92.60;;;;;;949491;146;27354;-73
2023/07/22 00:45:44;;;;;;;2.40;2.20;;;17.20;92.40;;;;;;949550;146;27382;-73
2023/07/22 00:48:11;;;;;;;2.45;2.27;;;17.20;92.50;;;;;;933726;150;27375;-73
2023/07/22 00:50:38;;;;;;;2.70;2.50;;;17.20;92.60;;;;;;951396;147;27337;-73
2023/07/22 00:53:04;;;;;;;2.60;2.40;;;17.20;92.70;;;;;;933344;150;27346;-73
2023/07/22 00:55:31;;;;;;;2.50;2.30;;;17.20;92.80;;;;;;950376;147;27331;-73
2023/07/22 00:57:57;;;;;;;3.17;2.17;;;17.10;92.80;;;;;;950241;147;27368;-73
2023/07/22 01:00:24;;;;;;;2.37;2.20;;;17.10;92.90;;;;;;948534;146;27322;-73
2023/07/22 01:02:51;;;;;;;2.40;2.20;;;17.10;93.00;;;;;;933001;150;27372;-73
2023/07/22 01:05:17;;;;;;;2.33;2.10;;;17.10;93.00;;;;;;951274;147;27446;-73
2023/07/22 01:07:44;;;;;;;2.40;2.05;;;17.10;92.90;;;;;;950380;147;27350;-73
2023/07/22 01:10:11;;;;;;;2.77;2.57;;;17.00;92.80;;;;;;941603;149;27394;-73
2023/07/22 01:12:38;;;;;;;4.13;2.07;;;17.00;92.80;;;;;;962738;145;27716;-73
2023/07/22 01:15:07;;;;;;;2.50;2.30;;;17.00;92.70;;;;;;962532;146;27429;-73
2023/07/22 01:17:30;;;;;;;2.87;2.35;;;16.90;92.70;;;;;;944924;148;27451;-73
2023/07/22 01:19:57;;;;;;;2.70;2.50;;;16.80;92.70;;;;;;962493;146;27392;-73
2023/07/22 01:22:23;;;;;;;3.35;2.50;;;16.70;92.70;;;;;;966619;145;27310;-73
2023/07/22 01:24:50;;;;;;;2.47;2.27;;;16.60;92.80;;;;;;966867;145;27434;-73
2023/07/22 01:27:16;;;;;;;2.27;2.17;;;16.60;93.00;;;;;;965425;145;27488;-73
2023/07/22 01:29:44;;;;;;;3.03;2.83;;;16.50;93.10;;;;;;945505;149;27333;-73
2023/07/22 01:32:10;;;;;;;4.50;2.70;;;16.40;93.40;;;;;;953383;147;27330;-73
2023/07/22 01:34:36;;;;;;;2.50;2.30;;;16.30;93.70;;;;;;957883;148;27358;-73
2023/07/22 01:37:04;;;;;;;2.77;2.57;;;16.20;94.00;;;;;;962996;146;27342;-73
2023/07/22 01:39:29;;;;;;;2.70;2.50;;;16.20;94.20;;;;;;962745;146;27322;-73
2023/07/22 01:41:56;;;;;;;2.80;2.60;;;16.10;94.40;;;;;;962977;146;27326;-73
2023/07/22 01:44:23;;;;;;;3.10;2.90;;;16.00;94.50;;;;;;963206;146;27410;-73
2023/07/22 01:46:49;;;;;;;2.60;2.40;;;16.00;94.60;;;;;;963128;146;27335;-73
2023/07/22 01:49:16;;;;;;;2.57;2.37;;;15.90;94.80;;;;;;963430;146;27438;-73
2023/07/22 01:51:42;;;;;;;2.93;2.73;;;15.90;95.10;;;;;;963431;146;27294;-73
2023/07/22 01:54:09;;;;;;;3.40;3.10;;;15.80;95.20;;;;;;963750;146;27310;-73
2023/07/22 01:56:36;;;;;;;2.70;2.50;;;15.80;95.40;;;;;;963144;146;27351;-73
2023/07/22 01:59:02;;;;;;;2.73;2.53;;;15.70;95.50;;;;;;963480;146;27696;-73
2023/07/22 02:01:29;;;;;;;2.90;2.70;;;15.70;95.70;;;;;;945863;148;27375;-73
2023/07/22 02:03:55;;;;;;;2.80;2.60;;;15.60;95.80;;;;;;963108;146;27302;-73
2023/07/22 02:06:22;;;;;;;3.00;2.80;;;15.60;95.80;;;;;;962771;146;27854;-73
2023/07/22 02:08:48;;;;;;;3.00;2.80;;;15.50;96.00;;;;;;963467;146;27392;-73
2023/07/22 02:11:15;;;;;;;3.13;2.87;;;15.50;96.30;;;;;;952893;147;27406;-73
2023/07/22 02:13:42;;;;;;;2.87;2.63;;;15.40;96.50;;;;;;948779;148;27360;-73
2023/07/22 02:16:11;;;;;;;3.23;2.93;;;15.40;96.70;;;;;;969881;145;27338;-73
2023/07/22 02:18:35;;;;;;;2.70;2.50;;;15.30;96.90;;;;;;971129;145;27359;-73
2023/07/22 02:21:01;;;;;;;2.97;2.67;;;15.30;97.00;;;;;;952006;147;27360;-73
2023/07/22 02:23:28;;;;;;;3.63;3.17;;;15.30;97.10;;;;;;969842;145;27348;-73
2023/07/22 02:25:55;;;;;;;2.70;2.50;;;15.30;97.20;;;;;;969638;145;27423;-73
2023/07/22 02:28:22;;;;;;;3.03;2.83;;;15.20;97.30;;;;;;969598;145;27365;-73
2023/07/22 02:30:48;;;;;;;2.97;2.70;;;15.20;97.30;;;;;;951953;148;27430;-73
2023/07/22 02:33:15;;;;;;;2.70;2.50;;;15.20;97.40;;;;;;969554;145;27441;-73
2023/07/22 02:35:44;;;;;;;3.90;2.80;;;15.10;97.50;;;;;;969525;145;27377;-73
2023/07/22 02:38:10;;;;;;;2.80;2.60;;;15.10;97.60;;;;;;969768;145;27272;-73
2023/07/22 02:40:37;;;;;;;3.13;2.73;;;15.10;97.60;;;;;;969518;145;27326;-73
2023/07/22 02:43:04;;;;;;;3.50;3.20;;;15.00;97.90;;;;;;952192;147;27858;-73
2023/07/22 02:45:30;;;;;;;2.87;2.67;;;15.00;98.00;;;;;;970105;145;27345;-72
2023/07/22 02:47:57;;;;;;;3.30;3.00;;;15.00;98.30;;;;;;971092;145;27447;-72
2023/07/22 02:50:23;;;;;;;3.10;2.90;;;14.90;98.40;;;;;;948800;148;27349;-71
2023/07/22 02:52:50;;;;;;;3.00;2.80;;;15.00;98.60;;;;;;953638;147;27452;-72
2023/07/22 02:55:19;;;;;;;3.23;2.70;;;14.90;98.70;;;;;;952334;147;27459;-72
2023/07/22 02:57:43;;;;;;;3.05;2.85;;;14.90;98.80;;;;;;968326;145;27337;-72
2023/07/22 03:00:13;;;;;;;3.27;3.00;;;14.90;98.80;;;;;;952238;147;27330;-72
2023/07/22 03:02:39;;;;;;;3.60;3.40;;;14.90;99.00;;;;;;951900;148;27477;-72
2023/07/22 03:05:07;;;;;;;3.83;3.03;;;14.80;99.10;;;;;;969664;145;27337;-72
2023/07/22 03:07:32;;;;;;;3.37;3.07;;;14.80;99.20;;;;;;969518;145;27450;-72
2023/07/22 03:09:59;;;;;;;3.17;2.87;;;14.80;99.20;;;;;;951479;147;27408;-72
2023/07/22 03:12:26;;;;;;;3.73;2.83;;;14.80;99.20;;;;;;948267;148;27327;-72
2023/07/22 03:14:52;;;;;;;3.60;3.30;;;14.80;99.20;;;;;;948269;148;27338;-72
2023/07/22 03:17:19;;;;;;;3.83;3.10;;;14.80;99.30;;;;;;948429;148;27372;-71
2023/07/22 03:19:45;;;;;;;3.93;3.10;;;14.70;99.30;;;;;;949047;148;27345;-72
2023/07/22 03:22:16;;;;;;;3.00;2.70;;;14.70;99.30;;;;;;948684;148;27705;-72
2023/07/22 03:24:41;;;;;;;2.43;2.23;;;14.70;99.30;;;;;;948450;148;27335;-72
2023/07/22 03:27:08;;;;;;;3.37;2.80;;;14.70;99.40;;;;;;948423;148;27888;-72
2023/07/22 03:29:34;;;;;;;2.73;2.53;;;14.60;99.30;;;;;;950043;147;27443;-71
2023/07/22 03:32:01;;;;;;;2.90;2.70;;;14.60;99.40;;;;;;949796;147;27843;-72
2023/07/22 03:34:28;;;;;;;3.60;3.30;;;14.60;99.50;;;;;;950583;147;27368;-71
2023/07/22 03:36:54;;;;;;;3.00;2.70;;;14.50;99.50;;;;;;933777;150;27375;-72
2023/07/22 03:39:21;;;;;;;2.70;2.40;;;14.50;99.60;;;;;;950149;147;27348;-71
2023/07/22 03:41:47;;;;;;;3.27;2.70;;;14.50;99.60;;;;;;934783;149;27399;-72
2023/07/22 03:44:14;;;;;;;2.90;2.67;;;14.40;99.60;;;;;;933354;150;27340;-72
2023/07/22 03:46:41;;;;;;;3.00;2.60;;;14.40;99.90;;;;;;950554;147;27341;-72
2023/07/22 03:49:07;;;;;;;3.07;2.57;;;14.40;99.90;;;;;;933307;150;27379;-71
2023/07/22 03:51:34;;;;;;;2.80;2.60;;;14.40;99.90;;;;;;949955;147;27604;-71
2023/07/22 03:54:00;;;;;;;3.17;2.83;;;14.30;99.90;;;;;;950743;147;27413;-72
2023/07/22 03:56:27;;;;;;;2.87;2.67;;;14.40;99.90;;;;;;933493;150;28380;-72
2023/07/22 03:58:53;;;;;;;3.60;2.73;;;14.30;99.90;;;;;;949634;147;27445;-72
2023/07/22 04:01:20;;;;;;;4.87;3.23;;;14.40;99.90;;;;;;931433;149;27354;-72
2023/07/22 04:03:47;;;;;;;3.00;2.70;;;14.40;99.90;;;;;;950949;147;27395;-72
2023/07/22 04:06:13;;;;;;;5.13;2.87;;;14.40;99.90;;;;;;926388;150;27337;-72
2023/07/22 04:08:40;;;;;;;3.20;2.90;;;14.40;99.90;;;;;;950651;147;27303;-72
2023/07/22 04:11:06;;;;;;;2.90;2.70;;;14.40;99.90;;;;;;933017;148;27388;-71
2023/07/22 04:13:33;;;;;;;3.27;2.83;;;14.40;99.90;;;;;;948299;147;27338;-72
2023/07/22 04:16:00;;;;;;;3.33;2.63;;;14.40;99.90;;;;;;947592;147;27302;-72
2023/07/22 04:18:26;;;;;;;2.93;2.73;;;14.40;99.90;;;;;;928252;151;27711;-72
2023/07/22 04:20:55;;;;;;;3.43;3.13;;;14.40;99.90;;;;;;947940;147;27689;-72
2023/07/22 04:23:22;;;;;;;2.90;2.70;;;14.50;99.90;;;;;;948543;147;27349;-71
2023/07/22 04:25:49;;;;;;;3.40;3.10;;;14.50;99.90;;;;;;948293;147;27307;-72
2023/07/22 04:28:15;;;;;;;4.03;3.17;;;14.60;99.90;;;;;;930798;150;27325;-72
2023/07/22 04:30:42;;;;;;;3.70;3.40;;;14.60;99.90;;;;;;948014;148;27410;-72
2023/07/22 04:33:11;;;;;;;4.00;3.70;;;14.70;99.90;;;;;;947326;148;27368;-72
2023/07/22 04:35:38;;;;;;;3.53;3.13;;;14.70;99.90;;;;;;947914;148;27414;-72
2023/07/22 04:38:04;;;;;;;4.33;3.93;;;14.80;99.90;;;;;;947982;148;27309;-72
2023/07/22 04:40:31;;;;;;;3.77;3.23;;;14.90;99.90;;;;;;947736;148;27417;-72
2023/07/22 04:42:57;;;;;;;3.93;3.63;;;15.00;99.90;;;;;;947464;148;27468;-72
2023/07/22 04:45:24;;;;;;;3.70;3.40;;;15.10;99.90;;;;;;947801;148;27338;-72
2023/07/22 04:47:51;;;;;;;3.60;3.37;;;15.20;99.90;;;;;;947672;148;27356;-72
2023/07/22 04:50:17;;;;;;;3.77;3.47;;;15.30;99.90;;;;;;947580;148;27341;-72
2023/07/22 04:52:44;;;;;;;3.63;3.33;;;15.40;99.90;;;;;;948043;148;27461;-72
2023/07/22 04:55:10;;;;;;;3.40;3.20;;;15.50;99.90;;;;;;946670;148;27356;-72
2023/07/22 04:57:37;;;;;;;4.50;4.10;;;15.60;99.90;;;;;;947352;148;27325;-71
2023/07/22 05:00:09;;;;;;;4.47;3.40;;;15.70;99.90;;;;;;948416;148;27427;-72
2023/07/22 05:02:33;;;;;;;3.93;3.60;;;15.80;99.90;;;;;;947639;148;27368;-72
2023/07/22 05:04:59;;;;;;;3.65;3.35;;;15.90;99.90;;;;;;948557;148;27344;-72
2023/07/22 05:07:26;;;;;;;3.45;3.22;;;16.10;99.90;;;;;;948087;148;27378;-72
2023/07/22 05:09:53;;;;;;;3.30;3.05;;;16.30;99.90;;;;;;948273;148;27462;-72
2023/07/22 05:12:19;;;;;;;3.90;3.37;;;16.50;99.90;;;;;;945170;148;27497;-71
2023/07/22 05:14:46;;;;;;;3.00;2.80;;;16.90;99.90;;;;;;942127;148;27399;-71
2023/07/22 05:17:12;;;;;;;3.20;3.00;;;17.30;99.90;;;;;;942581;148;27414;-72
2023/07/22 05:19:39;;;;;;;3.22;2.95;;;17.80;99.90;;;;;;942830;149;27353;-71
2023/07/22 05:22:05;;;;;;;2.98;2.77;;;18.30;99.90;;;;;;942901;148;27458;-72
2023/07/22 05:24:32;;;;;;;2.90;2.70;;;18.90;99.90;;;;;;943096;148;27417;-72
2023/07/22 05:26:58;;;;;;;2.85;2.52;;;19.50;99.90;;;;;;943107;148;27417;-72
2023/07/22 05:29:25;;;;;;;2.75;2.55;;;20.10;99.90;;;;;;942396;148;27400;-72
2023/07/22 05:31:52;;;;;;;2.47;2.27;;;20.70;99.90;;;;;;942490;148;27352;-72
2023/07/22 05:34:18;;;;;;;2.55;2.35;;;21.40;99.90;;;;;;942481;149;27414;-72
2023/07/22 05:36:45;;;;;;;2.58;2.37;;;22.00;99.90;;;;;;942294;148;27540;-72
2023/07/22 05:39:11;;;;;;;2.35;2.20;;;22.60;99.70;;;;;;943563;148;27428;-72
2023/07/22 05:41:38;;;;;;;2.40;2.20;;;23.20;98.10;;;;;;942539;147;27333;-72
2023/07/22 05:44:05;;;;;;;2.35;2.20;;;23.80;96.50;;;;;;942260;148;27341;-72
2023/07/22 05:46:31;;;;;;;2.20;2.02;;;24.40;94.30;;;;;;942848;148;27350;-72
2023/07/22 05:48:58;;;;;;;2.40;2.22;;;25.00;92.40;;;;;;942404;148;27339;-72
2023/07/22 05:51:24;;;;;;;2.33;2.22;;;25.60;90.70;;;;;;942668;149;27303;-72
2023/07/22 05:53:51;;;;;;;3.85;2.35;;;26.10;87.80;;;;;;943094;148;27454;-72
2023/07/22 05:56:18;;;;;;;2.62;2.17;;;26.70;84.50;;;;;;942999;148;27463;-72
2023/07/22 05:58:44;;;;;;;2.58;2.37;;;27.20;82.30;;;;;;942627;148;27349;-72
2023/07/22 06:01:12;;;;;;;2.50;2.30;;;27.70;80.10;;;;;;950123;147;27394;-73
2023/07/22 06:03:37;;;;;;;2.55;2.35;;;28.30;77.70;;;;;;950433;147;27666;-73
2023/07/22 06:06:04;;;;;;;2.55;2.35;;;28.70;75.30;;;;;;950220;147;27430;-72
2023/07/22 06:08:31;;;;;;;2.40;2.20;;;29.20;73.70;;;;;;930440;149;27768;-72
2023/07/22 06:10:57;;;;;;;2.35;2.15;;;29.70;71.70;;;;;;932793;149;27436;-72
2023/07/22 06:13:24;;;;;;;2.20;2.00;;;30.10;69.70;;;;;;947052;147;27329;-72
2023/07/22 06:15:50;;;;;;;2.37;2.17;;;30.50;68.00;;;;;;950488;147;27402;-72
2023/07/22 06:18:17;;;;;;;1.92;1.80;;;30.90;66.70;;;;;;926552;150;27362;-72
2023/07/22 06:20:43;;;;;;;3.83;2.05;;;31.20;65.50;;;;;;950503;147;27398;-72
2023/07/22 06:23:10;;;;;;;2.35;2.15;;;31.60;64.50;;;;;;949005;146;27315;-72
2023/07/22 06:25:37;;;;;;;1.98;1.87;;;32.10;63.20;;;;;;932963;150;27365;-72
2023/07/22 06:28:03;;;;;;;2.65;2.10;;;32.40;63.10;;;;;;950064;147;27348;-72
2023/07/22 06:30:30;;;;;;;1.85;1.75;;;32.80;61.20;;;;;;950254;147;27346;-72
2023/07/22 06:32:56;;;;;;;1.92;1.82;;;33.20;60.00;;;;;;950125;147;27426;-72
2023/07/22 06:35:23;;;;;;;2.00;1.90;;;33.60;59.20;;;;;;950139;147;27478;-72
2023/07/22 06:37:50;;;;;;;1.87;1.77;;;33.90;58.10;;;;;;933785;150;26266;-72
2023/07/22 06:40:16;;;;;;;4.28;2.22;;;34.20;57.50;;;;;;949715;147;27334;-72
2023/07/22 06:42:43;;;;;;;3.50;1.80;;;34.30;56.60;;;;;;926778;150;27358;-72
2023/07/22 06:45:09;;;;;;;1.77;1.67;;;34.40;55.20;;;;;;942653;148;27326;-72
2023/07/22 06:47:36;;;;;;;2.12;1.90;;;34.30;53.70;;;;;;950226;147;27333;-72
2023/07/22 06:50:04;;;;;;;1.67;1.57;;;34.10;52.60;;;;;;926446;150;27350;-72
2023/07/22 06:52:29;;;;;;;1.77;1.62;;;33.60;52.00;;;;;;942193;149;27338;-72
2023/07/22 06:54:56;;;;;;;1.75;1.65;;;33.20;52.10;;;;;;941878;149;27492;-72
2023/07/22 06:57:22;;;;;;;1.85;1.65;;;32.60;52.10;;;;;;948003;147;27390;-72
2023/07/22 06:59:50;;;;;;;1.90;1.80;;;32.10;52.20;;;;;;948099;147;27426;-72
2023/07/22 07:02:15;;;;;;;2.80;1.90;;;31.60;52.40;;;;;;948607;146;27340;-72
2023/07/22 07:04:42;;;;;;;2.02;1.85;;;31.20;53.00;;;;;;933690;150;27324;-72
2023/07/22 07:07:09;;;;;;;1.70;1.60;;;30.90;53.90;;;;;;950061;147;27305;-72
2023/07/22 07:09:35;;;;;;;2.45;1.85;;;30.80;54.90;;;;;;949626;147;27287;-72
2023/07/22 07:12:02;;;;;;;1.72;1.62;;;30.90;55.90;;;;;;926726;150;27356;-72
2023/07/22 07:14:28;;;;;;;1.95;1.80;;;31.30;56.50;;;;;;940694;149;27398;-72
2023/07/22 07:16:55;;;;;;;1.85;1.75;;;31.70;55.60;;;;;;940475;150;27338;-72
2023/07/22 07:19:22;;;;;;;2.20;1.70;;;32.20;55.30;;;;;;941353;152;26324;-72
2023/07/22 07:21:49;;;;;;;1.95;1.85;;;32.70;55.30;;;;;;941195;149;26270;-72
2023/07/22 07:24:15;;;;;;;1.70;1.57;;;33.30;55.10;;;;;;954165;148;26259;-73
2023/07/22 07:26:41;;;;;;;1.80;1.70;;;34.10;54.70;;;;;;954153;148;26185;-72
2023/07/22 07:29:08;;;;;;;2.10;1.90;;;34.80;53.90;;;;;;953962;148;26314;-72
2023/07/22 07:31:35;;;;;;;2.02;1.92;;;35.60;52.80;;;;;;935725;152;26250;-72
2023/07/22 07:34:01;;;;;;;1.72;1.62;;;36.40;51.70;;;;;;929584;151;26309;-72
2023/07/22 07:36:28;;;;;;;1.80;1.70;;;37.20;50.80;;;;;;954104;150;26225;-71
2023/07/22 07:38:54;;;;;;;3.00;1.90;;;37.80;50.30;;;;;;939758;149;26217;-72
2023/07/22 07:41:21;;;;;;;1.75;1.65;;;38.50;49.30;;;;;;944781;150;26220;-72
2023/07/22 07:43:47;;;;;;;2.12;1.92;;;39.30;48.40;;;;;;953295;147;26337;-72
2023/07/22 07:46:20;;;;;;;1.62;1.52;;;39.90;47.10;;;;;;930973;150;26304;-72
2023/07/22 07:48:52;;;;;;;1.60;1.50;;;40.50;46.30;;;;;;931175;151;26269;-72
2023/07/22 07:51:19;;;;;;;1.70;1.60;;;41.10;45.20;;;;;;937392;150;26385;-72
2023/07/22 07:53:46;;;;;;;2.02;1.72;;;41.70;44.30;;;;;;953639;148;26220;-72
2023/07/22 07:56:12;;;;;;;2.77;1.72;;;42.10;42.80;;;;;;953898;148;26255;-72
2023/07/22 07:58:39;;;;;;;2.00;1.80;;;42.40;41.90;;;;;;936818;150;26258;-72
2023/07/22 08:01:05;;;;;;;2.00;1.90;;;42.60;41.60;;;;;;926625;151;26239;-72
2023/07/22 08:03:32;;;;;;;2.55;1.50;;;42.90;40.80;;;;;;939882;150;26210;-72
2023/07/22 08:05:58;;;;;;;1.62;1.50;;;43.00;40.20;;;;;;936859;151;26647;-72
2023/07/22 08:08:25;;;;;;;2.33;1.52;;;43.20;39.50;;;;;;953357;148;26228;-72
2023/07/22 08:10:58;;;;;;;1.70;1.60;;;43.30;38.80;;;;;;953474;147;26233;-71
2023/07/22 08:13:24;;;;;;;2.02;1.92;;;43.50;38.30;;;;;;925926;151;26258;-72
2023/07/22 08:15:51;;;;;;;1.60;1.50;;;43.70;38.00;;;;;;964043;145;26306;-72
2023/07/22 08:18:18;;;;;;;1.75;1.50;;;43.70;37.30;;;;;;967235;145;26242;-72
2023/07/22 08:20:47;;;;;;;1.72;1.47;;;43.80;37.00;;;;;;967536;145;26574;-72
2023/07/22 08:23:11;;;;;;;1.70;1.60;;;43.70;36.30;;;;;;967349;145;26231;-71
2023/07/22 08:25:37;;;;;;;2.92;1.50;;;43.60;35.90;;;;;;951024;148;26216;-72
2023/07/22 08:28:04;;;;;;;1.50;1.40;;;43.50;35.90;;;;;;967521;145;26331;-72
2023/07/22 08:30:30;;;;;;;2.22;1.50;;;43.30;35.90;;;;;;967747;145;26281;-72
2023/07/22 08:32:57;;;;;;;1.65;1.55;;;43.20;35.70;;;;;;949978;148;26248;-71
2023/07/22 08:35:24;;;;;;;2.27;1.52;;;43.10;35.30;;;;;;968240;145;26352;-71
2023/07/22 08:37:50;;;;;;;1.80;1.50;;;43.00;34.80;;;;;;952581;148;26299;-71
2023/07/22 08:40:17;;;;;;;1.40;1.30;;;42.80;35.00;;;;;;951552;148;26366;-71
2023/07/22 08:42:43;;;;;;;1.45;1.32;;;42.80;35.10;;;;;;947630;148;26351;-71
2023/07/22 08:45:10;;;;;;;1.57;1.47;;;42.90;35.50;;;;;;966268;145;26237;-71
2023/07/22 08:47:37;;;;;;;1.50;1.40;;;43.10;35.30;;;;;;967642;145;26681;-72
2023/07/22 08:50:03;;;;;;;2.70;1.30;;;43.50;35.10;;;;;;946143;148;26272;-72
2023/07/22 08:52:30;;;;;;;1.42;1.32;;;43.80;34.30;;;;;;963715;145;26238;-72
2023/07/22 08:54:56;;;;;;;1.57;1.47;;;44.20;34.10;;;;;;965411;146;26337;-72
2023/07/22 08:57:23;;;;;;;2.83;1.77;;;44.30;33.40;;;;;;964361;147;26239;-72
2023/07/22 08:59:50;;;;;;;2.20;2.00;;;44.60;32.70;;;;;;965597;148;26253;-71
2023/07/22 09:02:16;;;;;;;3.85;1.85;;;44.70;32.10;;;;;;964513;148;26349;-72
2023/07/22 09:04:43;;;;;;;3.37;1.80;;;44.70;31.50;;;;;;944035;147;26400;-72
2023/07/22 09:07:09;;;;;;;1.67;1.57;;;44.60;31.30;;;;;;948430;147;26259;-72
2023/07/22 09:09:36;;;;;;;2.02;1.85;;;44.50;31.10;;;;;;967414;145;26257;-72
2023/07/22 09:12:03;;;;;;;2.12;1.70;;;44.40;30.80;;;;;;950969;147;26664;-72
2023/07/22 09:14:29;;;;;;;2.60;1.77;;;44.10;30.70;;;;;;949411;148;26364;-72
2023/07/22 09:16:56;;;;;;;1.70;1.60;;;44.00;30.70;;;;;;949262;148;26290;-72
2023/07/22 09:19:22;;;;;;;1.85;1.75;;;43.90;30.80;;;;;;959824;146;26320;-72
2023/07/22 09:21:49;;;;;;;1.60;1.50;;;43.80;30.80;;;;;;968011;145;26278;-71
2023/07/22 09:24:25;;;;;;;3.25;2.12;;;43.80;30.60;;;;;;969906;145;26235;-72
2023/07/22 09:26:51;;;;;;;2.17;1.85;;;43.70;30.10;;;;;;949826;148;26293;-71
2023/07/22 09:29:18;;;;;;;3.25;2.00;;;43.50;29.90;;;;;;967987;145;26202;-71
2023/07/22 09:31:50;;;;;;;1.80;1.70;;;43.10;29.70;;;;;;967308;145;26255;-72
2023/07/22 09:34:17;;;;;;;1.67;1.57;;;42.50;29.90;;;;;;970443;145;26306;-71
2023/07/22 09:36:52;;;;;;;2.02;1.92;;;42.20;30.10;;;;;;948787;148;26254;-71
2023/07/22 09:39:19;;;;;;;1.80;1.70;;;41.80;30.30;;;;;;967710;145;26247;-71
2023/07/22 09:41:45;;;;;;;2.25;2.05;;;41.40;30.10;;;;;;948985;148;26285;-71
2023/07/22 09:44:15;;;;;;;3.25;2.20;;;41.10;30.00;;;;;;963105;148;26222;-71
2023/07/22 09:46:41;;;;;;;2.27;2.08;;;40.70;30.00;;;;;;963056;146;26250;-71
2023/07/22 09:49:11;;;;;;;2.00;1.90;;;40.30;30.00;;;;;;964272;148;26720;-72
2023/07/22 09:51:37;;;;;;;2.83;1.82;;;39.90;30.20;;;;;;962054;148;26274;-71
2023/07/22 09:54:04;;;;;;;1.90;1.80;;;39.40;30.40;;;;;;963037;148;26304;-71
2023/07/22 09:56:30;;;;;;;6.83;1.87;;;38.90;30.90;;;;;;962501;146;26236;-71
2023/07/22 09:59:00;;;;;;;2.65;2.20;;;38.40;30.80;;;;;;963790;148;26243;-72
2023/07/22 10:01:27;;;;;;;2.67;2.47;;;38.00;31.00;;;;;;961934;148;27464;-74
2023/07/22 10:03:56;;;;;;;2.20;2.00;;;37.50;30.90;;;;;;963203;146;27346;-74
2023/07/22 10:06:20;;;;;;;2.27;2.08;;;36.90;30.90;;;;;;962787;148;26256;-74
2023/07/22 10:08:47;;;;;;;2.40;2.20;;;36.40;31.60;;;;;;963714;148;27316;-74
2023/07/22 10:11:13;;;;;;;2.45;2.25;;;36.00;32.00;;;;;;967718;145;26267;-74
2023/07/22 10:13:40;;;;;;;2.52;2.17;;;35.70;32.50;;;;;;966882;145;27414;-74
2023/07/22 10:16:07;;;;;;;2.37;2.10;;;35.40;32.70;;;;;;941679;148;27395;-74
2023/07/22 10:18:33;;;;;;;2.45;2.02;;;35.20;33.00;;;;;;944080;149;26238;-74
2023/07/22 10:21:00;;;;;;;2.72;2.37;;;35.10;33.40;;;;;;949802;147;27471;-74
2023/07/22 10:23:26;;;;;;;2.40;2.20;;;35.10;33.90;;;;;;950345;147;26260;-74
2023/07/22 10:25:53;;;;;;;2.20;2.00;;;35.10;34.00;;;;;;950300;147;27290;-74
2023/07/22 10:28:19;;;;;;;2.75;2.35;;;35.00;33.80;;;;;;949262;147;27356;-74
2023/07/22 10:30:46;;;;;;;5.20;2.12;;;35.00;33.60;;;;;;949053;147;27413;-74
2023/07/22 10:33:13;;;;;;;3.55;2.20;;;34.80;33.60;;;;;;949803;146;27343;-74
2023/07/22 10:35:42;;;;;;;2.17;2.08;;;34.70;33.40;;;;;;949425;147;27406;-74
2023/07/22 10:38:11;;;;;;;2.22;2.00;;;34.50;33.30;;;;;;948444;147;27324;-74
2023/07/22 10:40:47;;;;;;;2.20;2.05;;;34.30;33.50;;;;;;948534;147;27338;-74
2023/07/22 10:43:14;;;;;;;2.50;2.25;;;34.00;33.50;;;;;;926381;150;27443;-74
2023/07/22 10:45:40;;;;;;;2.60;2.22;;;33.80;33.60;;;;;;933366;150;27465;-73
2023/07/22 10:48:07;;;;;;;2.33;2.12;;;33.60;33.70;;;;;;949035;147;27333;-74
2023/07/22 10:50:42;;;;;;;2.40;1.95;;;33.40;34.10;;;;;;950137;147;27342;-73
2023/07/22 10:53:21;;;;;;;2.30;2.10;;;33.10;34.30;;;;;;946709;147;27329;-73
2023/07/22 10:56:02;;;;;;;2.55;2.35;;;32.90;34.70;;;;;;921394;149;27445;-73
2023/07/22 10:58:29;;;;;;;2.40;2.20;;;32.70;35.10;;;;;;949460;147;27330;-73
2023/07/22 11:00:56;;;;;;;2.90;2.20;;;32.50;35.10;;;;;;949643;147;27349;-73
2023/07/22 11:03:22;;;;;;;2.40;2.20;;;32.40;35.50;;;;;;926546;150;27371;-73
2023/07/22 11:05:52;;;;;;;3.08;2.00;;;32.20;35.70;;;;;;950299;147;27333;-73
2023/07/22 11:08:18;;;;;;;3.22;2.15;;;32.20;35.80;;;;;;949822;147;27447;-73
2023/07/22 11:10:55;;;;;;;2.75;2.27;;;32.10;35.90;;;;;;946418;147;27305;-73
2023/07/22 11:13:27;;;;;;;2.45;2.25;;;32.10;36.00;;;;;;933007;150;27480;-73
2023/07/22 11:15:53;;;;;;;1.98;1.87;;;32.10;36.30;;;;;;950098;147;27313;-73
2023/07/22 11:18:20;;;;;;;2.52;2.08;;;32.10;36.40;;;;;;950329;147;27411;-73
2023/07/22 11:20:46;;;;;;;2.30;2.10;;;32.10;36.50;;;;;;949883;146;27375;-73
2023/07/22 11:23:13;;;;;;;3.12;2.47;;;32.10;36.40;;;;;;932982;150;27360;-73
2023/07/22 11:25:39;;;;;;;3.17;2.40;;;32.20;36.40;;;;;;949585;147;27334;-73
2023/07/22 11:28:06;;;;;;;2.90;2.25;;;32.20;36.60;;;;;;949787;147;27357;-73
2023/07/22 11:30:33;;;;;;;2.42;2.22;;;32.30;36.80;;;;;;948799;146;27450;-73
2023/07/22 11:32:59;;;;;;;2.47;2.20;;;32.30;36.60;;;;;;925458;150;27412;-73
2023/07/22 11:35:26;;;;;;;2.30;1.82;;;32.30;36.40;;;;;;949836;147;27474;-73
2023/07/22 11:37:52;;;;;;;2.60;2.40;;;32.40;36.30;;;;;;933591;149;27487;-73
2023/07/22 11:40:19;;;;;;;2.42;2.22;;;32.50;36.50;;;;;;947195;147;27294;-73
2023/07/22 11:42:47;;;;;;;2.40;2.20;;;32.50;36.20;;;;;;950075;147;27395;-73
2023/07/22 11:45:12;;;;;;;2.22;2.05;;;32.60;36.10;;;;;;933172;150;27767;-73
2023/07/22 11:47:39;;;;;;;2.25;2.05;;;32.70;35.90;;;;;;950058;147;27432;-73
2023/07/22 11:50:05;;;;;;;3.22;2.17;;;32.80;35.80;;;;;;950047;147;27366;-73
2023/07/22 11:52:32;;;;;;;3.33;2.17;;;32.80;35.80;;;;;;926825;150;27410;-73
2023/07/22 11:54:59;;;;;;;2.50;2.10;;;32.90;36.50;;;;;;941625;149;27343;-73
2023/07/22 11:57:25;;;;;;;2.22;2.02;;;32.80;36.10;;;;;;941309;149;27370;-73
2023/07/22 11:59:52;;;;;;;2.33;2.12;;;32.90;36.00;;;;;;942311;149;27366;-73
2023/07/22 12:02:21;;;;;;;2.47;1.80;;;32.90;35.80;;;;;;948234;147;27289;-73
2023/07/22 12:04:59;;;;;;;2.70;2.50;;;32.90;35.80;;;;;;941396;149;27410;-73
2023/07/22 12:07:26;;;;;;;2.58;2.37;;;32.90;35.60;;;;;;947896;147;27438;-73
2023/07/22 12:09:53;;;;;;;2.67;2.47;;;32.90;35.60;;;;;;949246;146;27342;-73
2023/07/22 12:12:19;;;;;;;2.40;2.20;;;32.80;35.40;;;;;;932891;150;27409;-73
2023/07/22 12:14:46;;;;;;;2.50;2.30;;;32.70;35.40;;;;;;950116;147;27426;-73
2023/07/22 12:17:12;;;;;;;2.62;2.42;;;32.50;35.50;;;;;;949222;147;27389;-73
2023/07/22 12:19:39;;;;;;;4.35;2.10;;;32.50;35.70;;;;;;951582;146;27383;-73
2023/07/22 12:22:06;;;;;;;3.05;2.70;;;32.40;35.90;;;;;;949375;148;27443;-73
2023/07/22 12:24:32;;;;;;;3.10;2.50;;;32.30;36.00;;;;;;969319;145;27435;-73
2023/07/22 12:26:59;;;;;;;2.85;2.65;;;32.30;36.10;;;;;;969563;145;27783;-73
2023/07/22 12:29:25;;;;;;;2.77;2.20;;;32.30;36.00;;;;;;953351;147;27639;-73
2023/07/22 12:31:52;;;;;;;2.30;2.10;;;32.40;36.30;;;;;;952791;147;27327;-73
2023/07/22 12:34:19;;;;;;;2.37;2.12;;;32.30;36.20;;;;;;952767;147;27384;-73
2023/07/22 12:36:45;;;;;;;1.98;1.87;;;32.40;36.40;;;;;;952569;147;27681;-73
2023/07/22 12:39:12;;;;;;;2.22;2.08;;;32.40;36.10;;;;;;952831;147;27346;-73
2023/07/22 12:41:38;;;;;;;2.40;2.20;;;32.50;36.00;;;;;;969796;145;27869;-73
2023/07/22 12:44:05;;;;;;;2.52;2.33;;;32.40;35.80;;;;;;968568;145;27315;-73
2023/07/22 12:46:32;;;;;;;2.15;1.95;;;32.30;35.60;;;;;;953567;147;27426;-73